Time;durP1;ratioP1;P1;durP2;ratioP2;P2;SDS_P1;SDS_P2;PMS_P1;PMS_P2;Temp;Humidity;BMP_temperature;BMP_pressure;BME280_temperature;BME280_humidity;BME280_pressure;Samples;Min_cycle;Max_cycle;Signal;HPM_P1;HPM_P2
2023/06/09 00:00:55;;;;;;;11.73;8.07;;;17.40;99.90;;;;;;2701551;39;20717;31
2023/06/09 00:03:31;;;;;;;12.07;8.83;;;17.50;99.90;;;;;;2603209;54;19934;31
2023/06/09 00:06:08;;;;;;;11.40;8.30;;;17.40;99.90;;;;;;2602992;54;20248;31
2023/06/09 00:08:43;;;;;;;8.73;7.80;;;17.40;99.90;;;;;;2701998;39;20368;31
2023/06/09 00:11:17;;;;;;;8.23;7.30;;;17.40;99.90;;;;;;2622420;46;20026;31
2023/06/09 00:13:54;;;;;;;11.18;7.18;;;17.40;99.90;;;;;;2603916;54;20877;31
2023/06/09 00:16:28;;;;;;;10.53;8.60;;;17.40;99.90;;;;;;2702254;39;20496;31
2023/06/09 00:19:03;;;;;;;9.00;6.80;;;17.40;99.90;;;;;;2622087;46;20030;31
2023/06/09 00:21:40;;;;;;;8.17;6.57;;;17.40;99.90;;;;;;2603650;54;20053;31
2023/06/09 00:24:14;;;;;;;11.50;7.65;;;17.40;99.90;;;;;;2603799;54;20263;31
2023/06/09 00:26:52;;;;;;;7.70;7.00;;;17.30;99.90;;;;;;2603776;54;20069;31
2023/06/09 00:29:29;;;;;;;8.95;7.45;;;17.30;99.90;;;;;;2603831;54;20898;31
2023/06/09 00:32:03;;;;;;;9.23;8.27;;;17.30;99.90;;;;;;2603962;54;20026;31
2023/06/09 00:34:38;;;;;;;9.45;8.30;;;17.30;99.90;;;;;;2622154;46;20033;31
2023/06/09 00:37:12;;;;;;;8.63;7.38;;;17.20;99.90;;;;;;2603722;54;20034;31
2023/06/09 00:39:46;;;;;;;7.10;6.10;;;17.20;99.90;;;;;;2603655;54;20026;31
2023/06/09 00:42:21;;;;;;;7.82;6.80;;;17.20;99.90;;;;;;2603866;54;20473;31
2023/06/09 00:44:58;;;;;;;8.40;6.85;;;17.20;99.90;;;;;;2603788;54;20027;31
2023/06/09 00:47:32;;;;;;;9.23;7.78;;;17.20;99.90;;;;;;2622473;46;20034;31
2023/06/09 00:50:08;;;;;;;7.28;6.57;;;17.20;99.90;;;;;;2603594;54;20765;31
2023/06/09 00:52:42;;;;;;;8.15;6.55;;;17.10;99.90;;;;;;2603605;54;20030;31
2023/06/09 00:55:17;;;;;;;9.97;8.17;;;17.10;99.90;;;;;;2603863;54;20492;31
2023/06/09 00:57:55;;;;;;;9.60;8.32;;;17.00;99.90;;;;;;2603715;54;19983;31
2023/06/09 01:00:35;;;;;;;10.77;7.65;;;17.00;99.90;;;;;;2622421;46;20766;31
2023/06/09 01:03:10;;;;;;;10.02;7.10;;;17.00;99.90;;;;;;2603570;54;20828;31
2023/06/09 01:05:48;;;;;;;9.60;7.15;;;16.90;99.90;;;;;;2773515;31;20505;31
2023/06/09 01:08:24;;;;;;;11.13;7.85;;;16.90;99.90;;;;;;2603826;54;20856;31
2023/06/09 01:11:01;;;;;;;9.02;8.13;;;16.80;99.90;;;;;;2603608;54;20662;31
2023/06/09 01:13:39;;;;;;;7.97;6.70;;;16.80;99.90;;;;;;2603534;54;20027;31
2023/06/09 01:16:21;;;;;;;9.07;6.90;;;16.70;99.90;;;;;;2621950;46;20027;31
2023/06/09 01:18:55;;;;;;;8.13;7.18;;;16.70;99.90;;;;;;2622236;46;20031;31
2023/06/09 01:21:32;;;;;;;8.70;7.80;;;16.70;99.90;;;;;;2603750;54;20124;31
2023/06/09 01:24:23;;;;;;;9.95;7.55;;;16.60;99.90;;;;;;2603566;54;20836;31
2023/06/09 01:27:01;;;;;;;8.82;7.75;;;16.60;99.90;;;;;;2603775;54;20034;31
2023/06/09 01:29:35;;;;;;;10.00;7.70;;;16.50;99.90;;;;;;2603579;54;20033;31
2023/06/09 01:32:10;;;;;;;8.60;7.70;;;16.40;99.90;;;;;;2603613;54;20033;31
2023/06/09 01:34:45;;;;;;;8.75;6.95;;;16.30;99.90;;;;;;2622097;46;20085;31
2023/06/09 01:37:20;;;;;;;8.57;7.45;;;16.30;99.90;;;;;;2603315;54;20046;31
2023/06/09 01:39:54;;;;;;;9.43;6.28;;;16.30;99.90;;;;;;2702257;39;20984;31
2023/06/09 01:42:31;;;;;;;10.52;7.15;;;16.30;99.90;;;;;;2622280;46;20911;31
2023/06/09 01:45:06;;;;;;;10.25;8.02;;;16.20;99.90;;;;;;2603432;54;20849;31
2023/06/09 01:47:41;;;;;;;10.15;8.27;;;16.20;99.90;;;;;;2622039;46;20096;31
2023/06/09 01:50:20;;;;;;;10.48;8.15;;;16.20;99.90;;;;;;2622034;46;20777;31
2023/06/09 01:52:56;;;;;;;10.25;8.13;;;16.10;99.90;;;;;;2622022;46;20030;31
2023/06/09 01:55:32;;;;;;;10.63;8.27;;;16.10;99.90;;;;;;2603446;54;20036;31
2023/06/09 01:58:09;;;;;;;;;;;16.10;99.90;;;;;;2603611;54;20023;31
2023/06/09 02:00:43;;;;;;;8.45;6.70;;;16.10;99.90;;;;;;2621837;46;19941;31
2023/06/09 02:03:20;;;;;;;15.80;7.35;;;16.00;99.90;;;;;;2603274;54;20038;31
2023/06/09 02:05:55;;;;;;;10.43;8.80;;;16.00;99.90;;;;;;2603506;54;20837;31
2023/06/09 02:08:29;;;;;;;10.77;9.02;;;16.00;99.90;;;;;;2602773;54;20082;31
2023/06/09 02:11:04;;;;;;;10.00;8.02;;;15.90;99.90;;;;;;2603534;54;20023;31
2023/06/09 02:13:42;;;;;;;10.90;9.77;;;15.90;99.90;;;;;;2621628;46;20937;31
2023/06/09 02:16:16;;;;;;;10.60;8.45;;;15.90;99.90;;;;;;2603565;54;20089;31
2023/06/09 02:18:50;;;;;;;10.25;8.50;;;15.80;99.90;;;;;;2621796;46;20103;31
2023/06/09 02:21:25;;;;;;;14.23;10.52;;;15.80;99.90;;;;;;2603280;54;20788;31
2023/06/09 02:24:00;;;;;;;11.00;9.20;;;15.80;99.90;;;;;;2603340;54;20748;31
2023/06/09 02:26:36;;;;;;;9.40;8.20;;;15.70;99.90;;;;;;2603316;54;20046;31
2023/06/09 02:29:13;;;;;;;12.10;8.48;;;15.70;99.90;;;;;;2603203;54;20104;31
2023/06/09 02:31:47;;;;;;;10.25;8.52;;;15.60;99.90;;;;;;2603172;54;20026;31
2023/06/09 02:34:23;;;;;;;12.32;8.82;;;15.60;99.90;;;;;;2603317;54;20035;31
2023/06/09 02:37:00;;;;;;;9.52;7.90;;;15.50;99.90;;;;;;2603348;54;20034;31
2023/06/09 02:39:35;;;;;;;9.60;7.22;;;15.50;99.90;;;;;;2603351;54;20911;31
2023/06/09 02:42:10;;;;;;;11.23;8.83;;;15.50;99.90;;;;;;2603487;54;20030;31
2023/06/09 02:44:48;;;;;;;10.80;8.60;;;15.40;99.90;;;;;;2621281;46;20769;31
2023/06/09 02:47:23;;;;;;;10.80;8.75;;;15.40;99.90;;;;;;2603275;54;20053;31
2023/06/09 02:49:57;;;;;;;10.35;8.50;;;15.40;99.90;;;;;;2603238;54;20573;31
2023/06/09 02:52:32;;;;;;;9.35;7.70;;;15.40;99.90;;;;;;2621533;46;20077;31
2023/06/09 02:55:11;;;;;;;11.90;8.60;;;15.30;99.90;;;;;;2603036;54;20042;31
2023/06/09 02:57:51;;;;;;;10.43;8.52;;;15.30;99.90;;;;;;2603246;54;20027;31
2023/06/09 03:00:32;;;;;;;11.40;10.05;;;15.30;99.90;;;;;;2603327;54;20029;31
2023/06/09 03:03:13;;;;;;;11.73;10.48;;;15.20;99.90;;;;;;2603030;54;20957;31
2023/06/09 03:05:49;;;;;;;10.77;9.68;;;15.20;99.90;;;;;;2602837;54;20031;31
2023/06/09 03:08:25;;;;;;;13.57;10.18;;;15.20;99.90;;;;;;2621801;46;20088;31
2023/06/09 03:10:59;;;;;;;11.93;10.45;;;15.20;99.90;;;;;;2701555;39;20501;31
2023/06/09 03:13:35;;;;;;;12.95;8.85;;;15.20;99.90;;;;;;2603226;54;20101;31
2023/06/09 03:16:15;;;;;;;12.23;9.88;;;15.20;99.90;;;;;;2701935;39;20960;31
2023/06/09 03:18:51;;;;;;;10.97;8.93;;;15.30;99.90;;;;;;2602944;54;20033;31
2023/06/09 03:21:26;;;;;;;11.55;9.23;;;15.30;99.90;;;;;;2603266;54;20277;31
2023/06/09 03:24:02;;;;;;;;;;;15.40;99.90;;;;;;2603386;54;20760;31
2023/06/09 03:26:36;;;;;;;10.95;9.13;;;15.50;99.90;;;;;;2603095;54;19934;31
2023/06/09 03:29:12;;;;;;;11.50;9.95;;;15.50;99.90;;;;;;2603133;54;20108;31
2023/06/09 03:31:51;;;;;;;9.40;8.38;;;15.60;99.90;;;;;;2602922;54;20026;31
2023/06/09 03:34:26;;;;;;;9.40;8.00;;;15.70;99.90;;;;;;2602857;54;20026;31
2023/06/09 03:37:04;;;;;;;14.02;10.38;;;15.80;99.90;;;;;;2603104;54;20083;31
2023/06/09 03:39:36;;;;;;;12.75;10.25;;;15.90;99.90;;;;;;2719763;39;22499;31
2023/06/09 03:42:12;;;;;;;10.63;9.38;;;16.10;99.90;;;;;;2602987;54;20022;31
2023/06/09 03:44:47;;;;;;;12.55;10.25;;;16.20;99.90;;;;;;2603666;54;20810;31
2023/06/09 03:47:25;;;;;;;14.05;9.95;;;16.40;99.90;;;;;;2603875;54;20938;31
2023/06/09 03:50:00;;;;;;;11.60;9.95;;;16.50;99.90;;;;;;2621922;46;20088;31
2023/06/09 03:52:36;;;;;;;11.03;9.60;;;16.70;99.90;;;;;;2622148;46;20027;31
2023/06/09 03:55:22;;;;;;;11.63;9.90;;;16.80;99.90;;;;;;2622078;46;20261;31
2023/06/09 03:57:59;;;;;;;11.30;9.65;;;16.90;99.90;;;;;;2603968;54;20056;31
2023/06/09 04:00:33;;;;;;;13.75;9.45;;;17.10;99.90;;;;;;2603501;54;20173;31
2023/06/09 04:03:13;;;;;;;15.18;10.88;;;17.30;99.90;;;;;;2702178;39;20500;31
2023/06/09 04:05:50;;;;;;;12.20;10.65;;;17.50;99.90;;;;;;2603539;54;20026;31
2023/06/09 04:08:25;;;;;;;12.50;11.20;;;17.70;99.90;;;;;;2621975;46;20042;31
2023/06/09 04:11:00;;;;;;;14.68;11.57;;;17.80;99.90;;;;;;2603430;54;20840;31
2023/06/09 04:13:34;;;;;;;13.20;10.70;;;18.00;99.90;;;;;;2702208;39;20560;31
2023/06/09 04:16:11;;;;;;;9.95;8.95;;;18.10;99.90;;;;;;2621984;46;20846;31
2023/06/09 04:18:50;;;;;;;11.20;8.30;;;18.20;99.90;;;;;;2603578;54;20567;31
2023/06/09 04:21:25;;;;;;;10.23;8.23;;;18.40;99.90;;;;;;2603572;54;20238;31
2023/06/09 04:23:59;;;;;;;9.63;8.17;;;18.50;99.90;;;;;;2621410;46;20019;31
2023/06/09 04:26:37;;;;;;;11.07;9.90;;;18.70;99.90;;;;;;2603537;54;20834;31
2023/06/09 04:29:12;;;;;;;10.80;9.25;;;18.90;99.90;;;;;;2603678;54;20766;31
2023/06/09 04:31:47;;;;;;;15.65;9.55;;;19.00;99.90;;;;;;2603640;54;20901;31
2023/06/09 04:34:25;;;;;;;12.23;9.20;;;19.00;99.90;;;;;;2603726;54;20046;31
2023/06/09 04:37:01;;;;;;;10.52;9.13;;;19.10;99.90;;;;;;2622341;46;20042;31
2023/06/09 04:39:36;;;;;;;10.60;9.50;;;19.20;99.90;;;;;;2603684;54;20088;31
2023/06/09 04:42:14;;;;;;;12.25;9.90;;;19.30;99.90;;;;;;2603761;54;20018;31
2023/06/09 04:44:50;;;;;;;9.70;8.70;;;19.50;99.90;;;;;;2603531;54;20027;31
2023/06/09 04:47:29;;;;;;;11.25;8.80;;;19.60;99.90;;;;;;2603642;54;20027;31
2023/06/09 04:50:08;;;;;;;10.90;9.00;;;19.80;99.90;;;;;;2603615;54;20023;31
2023/06/09 04:52:44;;;;;;;10.82;8.23;;;20.10;99.90;;;;;;2603646;54;20860;31
2023/06/09 04:55:19;;;;;;;12.27;9.10;;;20.20;99.90;;;;;;2720524;39;20473;31
2023/06/09 04:57:56;;;;;;;9.70;8.45;;;20.40;99.90;;;;;;2773608;31;20618;31
2023/06/09 05:00:31;;;;;;;9.67;8.00;;;20.60;99.90;;;;;;2603442;54;20084;31
2023/06/09 05:03:06;;;;;;;10.73;8.93;;;20.80;99.90;;;;;;2603516;54;20924;31
2023/06/09 05:05:44;;;;;;;11.20;9.23;;;20.80;99.90;;;;;;2603736;54;20935;31
2023/06/09 05:08:20;;;;;;;15.40;8.90;;;20.80;99.90;;;;;;2603395;54;20832;31
2023/06/09 05:10:56;;;;;;;14.93;8.93;;;20.80;99.90;;;;;;2603725;54;20026;31
2023/06/09 05:13:31;;;;;;;10.07;9.05;;;20.90;99.90;;;;;;2603408;54;20045;31
2023/06/09 05:16:07;;;;;;;10.30;9.05;;;20.90;99.90;;;;;;2603503;54;20875;31
2023/06/09 05:18:42;;;;;;;12.93;8.70;;;21.00;99.90;;;;;;2622156;46;20027;31
2023/06/09 05:21:21;;;;;;;9.20;8.30;;;21.10;99.90;;;;;;2621665;46;20081;31
2023/06/09 05:23:56;;;;;;;8.23;7.43;;;21.30;99.90;;;;;;2621958;46;20122;31
2023/06/09 05:26:31;;;;;;;12.13;8.13;;;21.50;99.90;;;;;;2621962;46;20088;31
2023/06/09 05:29:06;;;;;;;9.60;8.05;;;21.70;99.90;;;;;;2603114;54;20033;31
2023/06/09 05:31:41;;;;;;;11.30;7.87;;;22.00;99.90;;;;;;2701939;39;21394;31
2023/06/09 05:34:17;;;;;;;8.70;7.60;;;22.30;99.90;;;;;;2702297;39;20501;31
2023/06/09 05:36:55;;;;;;;9.60;8.15;;;22.60;99.90;;;;;;2603454;54;20891;31
2023/06/09 05:39:30;;;;;;;9.68;7.68;;;22.90;99.90;;;;;;2621459;46;20888;31
2023/06/09 05:42:06;;;;;;;10.13;7.47;;;23.30;99.90;;;;;;2621779;46;20022;31
2023/06/09 05:44:40;;;;;;;10.52;6.65;;;23.40;99.90;;;;;;2603332;54;20029;31
2023/06/09 05:47:15;;;;;;;8.33;7.23;;;23.40;99.90;;;;;;2621831;46;20056;31
2023/06/09 05:49:50;;;;;;;7.35;6.65;;;23.50;99.90;;;;;;2603335;54;20820;31
2023/06/09 05:52:28;;;;;;;7.85;7.05;;;23.40;99.90;;;;;;2603476;54;20914;31
2023/06/09 05:55:04;;;;;;;9.15;7.72;;;23.30;99.90;;;;;;2621573;46;20884;31
2023/06/09 05:57:40;;;;;;;8.30;7.33;;;23.20;99.90;;;;;;2621581;46;20884;31
2023/06/09 06:00:17;;;;;;;8.77;7.03;;;23.10;99.90;;;;;;2603305;54;21392;31
2023/06/09 06:02:53;;;;;;;8.68;7.07;;;23.00;99.90;;;;;;2602915;54;21233;31
2023/06/09 06:05:29;;;;;;;8.15;7.05;;;22.90;99.90;;;;;;2603046;54;20027;31
2023/06/09 06:08:07;;;;;;;8.50;6.65;;;22.80;99.90;;;;;;2603282;54;20099;31
2023/06/09 06:10:43;;;;;;;9.82;7.00;;;22.70;99.90;;;;;;2603373;54;20022;31
2023/06/09 06:13:18;;;;;;;10.63;7.18;;;22.60;99.90;;;;;;2621634;46;20579;31
2023/06/09 06:15:53;;;;;;;8.40;6.70;;;22.60;99.90;;;;;;2603512;54;20030;31
2023/06/09 06:18:28;;;;;;;7.97;7.18;;;22.50;99.90;;;;;;2720489;39;20488;31
2023/06/09 06:21:03;;;;;;;9.20;7.40;;;22.50;99.90;;;;;;2603140;54;20031;31
2023/06/09 06:23:40;;;;;;;9.25;7.93;;;22.40;99.90;;;;;;2603437;54;20836;31
2023/06/09 06:26:15;;;;;;;7.32;6.63;;;22.30;99.90;;;;;;2603243;54;20033;31
2023/06/09 06:28:51;;;;;;;7.30;6.30;;;22.30;99.90;;;;;;2701977;39;20481;31
2023/06/09 06:31:28;;;;;;;8.95;8.05;;;22.30;99.90;;;;;;2621894;46;20029;31
2023/06/09 06:34:03;;;;;;;9.65;7.80;;;22.20;99.90;;;;;;2603186;54;20033;31
2023/06/09 06:36:41;;;;;;;8.55;7.63;;;22.20;99.90;;;;;;2603178;54;20847;31
2023/06/09 06:39:20;;;;;;;11.80;7.28;;;22.20;99.90;;;;;;2603306;54;20027;31
2023/06/09 06:41:55;;;;;;;8.52;6.03;;;22.30;99.90;;;;;;2603375;54;20027;31
2023/06/09 06:44:35;;;;;;;7.03;6.18;;;22.30;99.90;;;;;;2603289;54;20519;31
2023/06/09 06:47:10;;;;;;;10.30;6.85;;;22.40;99.90;;;;;;2621708;46;20779;31
2023/06/09 06:49:45;;;;;;;8.90;7.65;;;22.40;99.90;;;;;;2603438;54;20880;31
2023/06/09 06:52:20;;;;;;;6.40;5.77;;;22.40;99.90;;;;;;2603536;54;20033;31
2023/06/09 06:54:58;;;;;;;7.37;6.53;;;22.50;99.90;;;;;;2603112;54;20049;31
2023/06/09 06:57:32;;;;;;;21.58;7.18;;;22.50;99.90;;;;;;2621458;46;21120;31
2023/06/09 07:00:12;;;;;;;8.40;7.20;;;22.50;99.90;;;;;;2621775;46;20898;31
2023/06/09 07:02:48;;;;;;;7.50;6.35;;;22.60;99.90;;;;;;2621734;46;20049;31
2023/06/09 07:05:24;;;;;;;8.82;6.80;;;22.60;99.90;;;;;;2603065;54;20845;31
2023/06/09 07:07:59;;;;;;;11.10;6.68;;;22.70;99.90;;;;;;2603042;54;20767;31
2023/06/09 07:10:37;;;;;;;7.97;6.57;;;22.70;99.90;;;;;;2603084;54;20035;31
2023/06/09 07:13:12;;;;;;;8.73;6.60;;;22.80;99.90;;;;;;2621814;46;20048;31
2023/06/09 07:15:47;;;;;;;7.20;6.40;;;22.80;99.90;;;;;;2603238;54;19941;31
2023/06/09 07:18:22;;;;;;;7.40;6.63;;;22.90;99.90;;;;;;2603057;54;20033;31
2023/06/09 07:20:59;;;;;;;8.23;6.27;;;23.00;99.90;;;;;;2602995;54;20889;31
2023/06/09 07:23:37;;;;;;;9.70;7.28;;;23.10;99.90;;;;;;2603240;54;20037;31
2023/06/09 07:26:14;;;;;;;9.95;7.53;;;23.30;99.90;;;;;;2603097;54;20089;31
2023/06/09 07:28:50;;;;;;;9.40;6.90;;;23.40;99.90;;;;;;2603254;54;20022;31
2023/06/09 07:31:25;;;;;;;7.47;6.05;;;23.60;99.90;;;;;;2621484;47;20849;31
2023/06/09 07:34:00;;;;;;;9.70;7.13;;;23.80;99.90;;;;;;2602947;54;20833;31
2023/06/09 07:36:35;;;;;;;6.80;6.00;;;23.90;99.90;;;;;;2603113;54;20030;31
2023/06/09 07:39:10;;;;;;;60.33;15.13;;;24.10;99.90;;;;;;2621206;47;20848;31
2023/06/09 07:41:48;;;;;;;19.20;8.60;;;24.30;99.90;;;;;;2602906;54;20740;31
2023/06/09 07:44:25;;;;;;;18.80;8.95;;;24.40;99.90;;;;;;2603055;54;21087;31
2023/06/09 07:47:00;;;;;;;8.10;5.50;;;24.60;99.90;;;;;;2603181;54;20093;31
2023/06/09 07:49:34;;;;;;;6.43;5.77;;;25.00;99.90;;;;;;2602990;54;20038;31
2023/06/09 07:52:11;;;;;;;6.05;5.45;;;25.40;99.90;;;;;;2602892;54;20774;31
2023/06/09 07:54:58;;;;;;;9.20;5.47;;;25.80;99.90;;;;;;2603126;54;20066;31
2023/06/09 07:57:37;;;;;;;5.82;5.32;;;25.70;99.90;;;;;;2621503;47;20033;31
2023/06/09 08:00:15;;;;;;;6.32;5.50;;;25.70;99.90;;;;;;2602857;54;20112;31
2023/06/09 08:02:50;;;;;;;9.73;5.80;;;25.70;99.90;;;;;;2602876;54;20057;31
2023/06/09 08:08:10;;;;;;;6.90;6.10;;;25.80;99.90;;;;;;2603099;54;20022;31
2023/06/09 08:10:45;;;;;;;9.07;5.83;;;26.00;99.90;;;;;;2602749;54;21057;31
2023/06/09 08:13:23;;;;;;;;;;;26.00;99.90;;;;;;2603203;54;20752;31
2023/06/09 08:16:01;;;;;;;7.93;6.47;;;25.90;99.90;;;;;;2602706;54;19935;31
2023/06/09 08:18:37;;;;;;;6.37;5.73;;;25.80;99.90;;;;;;2621454;47;20030;31
2023/06/09 08:21:12;;;;;;;10.65;6.85;;;25.80;99.90;;;;;;2602630;54;20009;31
2023/06/09 08:23:51;;;;;;;8.90;7.17;;;25.80;99.90;;;;;;2603008;54;20089;31
2023/06/09 08:26:25;;;;;;;7.95;6.57;;;25.90;99.90;;;;;;2602932;54;20027;31
2023/06/09 08:29:00;;;;;;;8.10;7.30;;;25.90;99.90;;;;;;2621188;47;20032;31
2023/06/09 08:31:39;;;;;;;9.07;7.53;;;25.90;99.90;;;;;;2603815;54;20026;31
2023/06/09 08:34:15;;;;;;;7.65;6.85;;;25.80;99.90;;;;;;2622164;46;20749;31
2023/06/09 08:36:50;;;;;;;10.35;7.85;;;25.70;99.90;;;;;;2603696;54;20052;31
2023/06/09 08:39:25;;;;;;;6.47;5.87;;;25.60;99.90;;;;;;2603414;54;20756;31
2023/06/09 08:42:00;;;;;;;7.80;6.78;;;25.70;99.90;;;;;;2603541;54;20673;31
2023/06/09 08:44:37;;;;;;;6.82;6.22;;;25.70;99.90;;;;;;2603535;54;20465;31
2023/06/09 08:47:15;;;;;;;7.23;6.53;;;25.70;99.90;;;;;;2603725;54;20030;31
2023/06/09 08:49:52;;;;;;;11.32;6.82;;;25.60;99.90;;;;;;2603688;54;20901;31
2023/06/09 08:52:28;;;;;;;7.68;6.88;;;25.60;99.90;;;;;;2603587;54;20022;31
2023/06/09 08:55:03;;;;;;;7.55;6.85;;;25.50;99.90;;;;;;2701957;39;21353;31
2023/06/09 08:57:39;;;;;;;7.55;6.60;;;25.30;99.90;;;;;;2603474;54;20026;31
2023/06/09 09:00:17;;;;;;;7.22;6.07;;;25.20;99.90;;;;;;2603605;54;20022;31
2023/06/09 09:02:56;;;;;;;8.60;6.18;;;25.10;99.90;;;;;;2621888;46;20955;31
2023/06/09 09:05:31;;;;;;;7.70;6.13;;;25.10;99.90;;;;;;2603704;54;20106;31
2023/06/09 09:08:07;;;;;;;7.07;6.38;;;25.30;99.90;;;;;;2621712;46;20238;31
2023/06/09 09:10:45;;;;;;;6.55;5.93;;;25.40;99.90;;;;;;2603590;54;20031;31
2023/06/09 09:13:24;;;;;;;6.30;5.55;;;25.60;99.90;;;;;;2603553;54;20796;31
2023/06/09 09:16:01;;;;;;;6.65;5.93;;;25.80;99.90;;;;;;2603747;54;20049;31
2023/06/09 09:18:41;;;;;;;8.10;4.97;;;25.90;99.90;;;;;;2603743;54;20026;31
2023/06/09 09:21:24;;;;;;;6.90;5.03;;;25.80;99.90;;;;;;2603489;54;20026;31
2023/06/09 09:26:30;;;;;;;6.68;5.55;;;25.80;99.90;;;;;;2603793;54;20022;31
2023/06/09 09:29:07;;;;;;;6.40;5.20;;;25.80;99.90;;;;;;2701979;39;20512;31
2023/06/09 09:31:43;;;;;;;7.53;5.25;;;25.80;99.90;;;;;;2603406;54;20292;31
2023/06/09 09:34:25;;;;;;;6.00;5.38;;;25.80;99.90;;;;;;2603350;54;20052;31
2023/06/09 09:37:00;;;;;;;6.30;5.70;;;25.60;99.90;;;;;;2603726;54;20813;31
2023/06/09 09:39:35;;;;;;;7.67;5.27;;;25.60;99.90;;;;;;2622139;46;20034;31
2023/06/09 09:42:10;;;;;;;6.40;5.70;;;25.50;99.90;;;;;;2603340;54;20768;31
2023/06/09 09:44:47;;;;;;;10.65;6.32;;;25.60;99.90;;;;;;2603614;54;20871;31
2023/06/09 09:47:23;;;;;;;8.02;5.75;;;25.80;99.90;;;;;;2603496;54;20022;31
2023/06/09 09:50:02;;;;;;;8.48;5.68;;;26.00;99.90;;;;;;2603367;54;20023;31
2023/06/09 09:52:37;;;;;;;8.20;6.17;;;26.20;99.90;;;;;;2621881;46;19934;31
2023/06/09 09:55:10;;;;;;;;;;;26.30;99.90;;;;;;2622033;46;19942;31
2023/06/09 09:57:45;;;;;;;7.00;6.30;;;26.30;99.90;;;;;;2603531;54;19939;31
2023/06/09 10:00:21;;;;;;;7.03;6.32;;;26.30;99.90;;;;;;2603600;54;20892;31
2023/06/09 10:02:59;;;;;;;7.88;5.70;;;26.10;99.90;;;;;;2603204;54;20543;31
2023/06/09 10:05:38;;;;;;;6.82;5.82;;;26.00;99.90;;;;;;2621838;46;20871;31
2023/06/09 10:08:13;;;;;;;6.93;5.87;;;25.90;99.90;;;;;;2603305;54;20026;31
2023/06/09 10:10:50;;;;;;;7.40;5.85;;;25.90;99.90;;;;;;2603599;54;20046;31
2023/06/09 10:13:26;;;;;;;8.27;6.03;;;25.90;99.90;;;;;;2603421;54;20766;31
2023/06/09 10:16:01;;;;;;;7.10;5.53;;;25.90;99.90;;;;;;2603253;54;20074;31
2023/06/09 10:18:36;;;;;;;7.70;6.25;;;26.00;99.90;;;;;;2603361;54;20037;31
2023/06/09 10:21:16;;;;;;;7.55;6.40;;;26.20;99.90;;;;;;2603429;54;20030;31
2023/06/09 10:23:51;;;;;;;8.55;5.97;;;26.20;99.90;;;;;;2621822;46;20031;31
2023/06/09 10:26:25;;;;;;;7.30;5.75;;;26.20;99.90;;;;;;2603419;54;20026;31
2023/06/09 10:29:01;;;;;;;6.83;6.10;;;26.20;99.90;;;;;;2603427;54;20816;31
2023/06/09 10:31:36;;;;;;;;;;;26.10;99.90;;;;;;2603540;54;21237;31
2023/06/09 10:34:12;;;;;;;8.90;5.88;;;26.10;99.90;;;;;;2603362;54;20012;31
2023/06/09 10:36:51;;;;;;;6.35;5.60;;;26.00;99.90;;;;;;2603336;54;20036;31
2023/06/09 10:39:26;;;;;;;7.50;6.70;;;26.00;99.90;;;;;;2603229;54;20026;31
2023/06/09 10:42:07;;;;;;;7.80;7.00;;;25.90;99.90;;;;;;2602713;54;20905;31
2023/06/09 10:44:44;;;;;;;9.32;6.40;;;25.80;99.90;;;;;;2603185;54;20909;31
2023/06/09 10:47:43;;;;;;;9.05;6.45;;;25.70;99.90;;;;;;2701993;39;21019;31
2023/06/09 10:50:29;;;;;;;7.20;6.50;;;25.50;99.90;;;;;;2621709;46;20034;31
2023/06/09 10:53:08;;;;;;;6.35;5.72;;;25.50;99.90;;;;;;2602849;54;20896;31
2023/06/09 10:55:45;;;;;;;8.27;6.00;;;25.40;99.90;;;;;;2621522;46;20042;31
2023/06/09 10:58:37;;;;;;;9.60;6.23;;;25.40;99.90;;;;;;2621521;46;20034;31
2023/06/09 11:01:11;;;;;;;7.35;6.15;;;25.30;99.90;;;;;;2622202;46;20120;31
2023/06/09 11:03:47;;;;;;;6.40;5.45;;;25.30;99.90;;;;;;2603344;54;20026;31
2023/06/09 11:06:22;;;;;;;6.82;6.13;;;25.20;99.90;;;;;;2602897;54;20776;31
2023/06/09 11:09:14;;;;;;;7.68;5.85;;;25.10;99.90;;;;;;2621615;46;20106;31
2023/06/09 11:11:52;;;;;;;7.45;5.40;;;25.00;99.90;;;;;;2603088;54;20027;31
2023/06/09 11:14:56;;;;;;;7.35;5.90;;;25.00;99.90;;;;;;2603344;54;20855;31
2023/06/09 11:17:39;;;;;;;18.10;7.45;;;24.80;99.90;;;;;;2603033;54;20034;31
2023/06/09 11:20:15;;;;;;;8.38;7.25;;;24.60;99.90;;;;;;2603040;54;20027;31
2023/06/09 11:23:04;;;;;;;10.03;5.87;;;23.90;99.90;;;;;;2621921;46;20042;31
2023/06/09 11:25:42;;;;;;;15.83;6.17;;;23.20;99.90;;;;;;2621589;47;19934;31
2023/06/09 11:28:24;;;;;;;8.93;5.10;;;22.60;99.90;;;;;;2603088;54;21097;31
2023/06/09 11:31:03;;;;;;;6.53;4.47;;;22.10;99.90;;;;;;2602976;54;20912;31
2023/06/09 11:33:53;;;;;;;6.15;4.20;;;21.70;99.90;;;;;;2621540;47;20057;31
2023/06/09 11:36:30;;;;;;;8.30;4.22;;;21.40;99.90;;;;;;2603100;54;20026;31
2023/06/09 11:39:07;;;;;;;7.25;4.90;;;21.20;99.90;;;;;;2621332;47;20902;31
2023/06/09 11:41:44;;;;;;;13.48;5.80;;;21.10;99.90;;;;;;2603145;54;20027;31
2023/06/09 11:44:19;;;;;;;10.50;5.00;;;20.90;99.90;;;;;;2602894;54;20183;31
2023/06/09 11:46:54;;;;;;;9.52;4.70;;;20.80;99.90;;;;;;2603125;54;20034;31
2023/06/09 11:49:29;;;;;;;7.20;4.90;;;20.70;99.90;;;;;;2603113;54;20023;31
2023/06/09 11:52:06;;;;;;;7.55;4.43;;;20.70;99.90;;;;;;2602930;54;20873;31
2023/06/09 11:54:48;;;;;;;9.80;5.73;;;20.60;99.90;;;;;;2602907;54;20034;31
2023/06/09 11:57:25;;;;;;;14.90;6.32;;;20.60;99.90;;;;;;2602850;54;20887;31
2023/06/09 12:00:06;;;;;;;11.73;5.18;;;20.60;99.90;;;;;;2621618;47;20846;31
2023/06/09 12:02:45;;;;;;;10.50;5.77;;;20.60;99.90;;;;;;2603085;54;20038;31
2023/06/09 12:05:21;;;;;;;11.82;5.85;;;20.60;99.90;;;;;;2603430;54;20815;31
2023/06/09 12:07:56;;;;;;;11.25;7.10;;;20.60;99.90;;;;;;2603774;54;20879;31
2023/06/09 12:10:31;;;;;;;13.32;6.18;;;20.60;99.90;;;;;;2622060;46;20812;31
2023/06/09 12:13:10;;;;;;;10.20;6.20;;;20.60;99.90;;;;;;2603852;54;20081;31
2023/06/09 12:15:46;;;;;;;10.20;5.85;;;20.60;99.90;;;;;;2603882;54;20832;31
2023/06/09 12:18:21;;;;;;;8.52;5.20;;;20.60;99.90;;;;;;2621910;46;20027;31
2023/06/09 12:20:56;;;;;;;11.10;5.90;;;20.60;99.90;;;;;;2622016;46;20848;31
2023/06/09 12:23:32;;;;;;;9.40;5.85;;;20.60;99.90;;;;;;2603718;54;20871;31
2023/06/09 12:26:09;;;;;;;12.18;5.75;;;20.70;99.90;;;;;;2603499;54;20036;31
2023/06/09 12:28:47;;;;;;;8.63;6.47;;;20.70;99.90;;;;;;2603765;54;20766;31
2023/06/09 12:31:22;;;;;;;8.82;5.97;;;20.80;99.90;;;;;;2622023;46;20026;31
2023/06/09 12:34:00;;;;;;;12.57;6.27;;;20.80;99.90;;;;;;2603593;54;20754;31
2023/06/09 12:36:42;;;;;;;11.63;6.47;;;20.90;99.90;;;;;;2603491;54;21103;31
2023/06/09 12:39:22;;;;;;;10.27;5.72;;;20.90;99.90;;;;;;2603656;54;20986;31
2023/06/09 12:41:57;;;;;;;6.43;5.13;;;21.00;99.90;;;;;;2603853;54;20031;31
2023/06/09 12:44:35;;;;;;;15.45;7.05;;;21.10;99.90;;;;;;2603697;54;20027;31
2023/06/09 12:47:17;;;;;;;10.50;5.90;;;21.20;99.90;;;;;;2603780;54;20877;31
2023/06/09 12:49:52;;;;;;;12.27;5.93;;;21.20;99.90;;;;;;2603692;54;20867;31
2023/06/09 12:52:27;;;;;;;10.50;5.80;;;21.30;99.90;;;;;;2603550;54;20030;31
2023/06/09 12:55:02;;;;;;;8.63;5.63;;;21.50;99.90;;;;;;2622315;46;20344;31
2023/06/09 12:57:44;;;;;;;10.10;6.25;;;21.60;99.90;;;;;;2621969;46;20034;31
2023/06/09 13:00:24;;;;;;;7.60;5.60;;;21.70;99.90;;;;;;2603670;54;20122;31
2023/06/09 13:03:00;;;;;;;12.27;6.57;;;21.80;99.90;;;;;;2773647;31;20440;31
2023/06/09 13:05:38;;;;;;;11.65;7.38;;;21.90;99.90;;;;;;2603728;54;20069;31
2023/06/09 13:08:13;;;;;;;11.80;6.10;;;22.00;99.90;;;;;;2603601;54;20034;31
2023/06/09 13:10:49;;;;;;;8.70;6.47;;;22.00;99.90;;;;;;2603719;54;20022;31
2023/06/09 13:13:24;;;;;;;10.60;6.68;;;22.10;99.90;;;;;;2621976;46;20026;31
2023/06/09 13:16:02;;;;;;;11.40;7.37;;;22.20;99.90;;;;;;2603498;54;20034;31
2023/06/09 13:18:37;;;;;;;9.30;6.63;;;22.30;99.90;;;;;;2603468;54;20085;31
2023/06/09 13:21:15;;;;;;;6.40;5.80;;;22.40;99.90;;;;;;2603628;54;20118;31
2023/06/09 13:24:11;;;;;;;8.57;5.88;;;22.40;99.90;;;;;;2603513;54;20026;31
2023/06/09 13:26:49;;;;;;;11.00;6.95;;;22.50;99.90;;;;;;2622188;46;19934;31
2023/06/09 13:29:26;;;;;;;9.10;6.55;;;22.60;99.90;;;;;;2603699;54;20089;31
2023/06/09 13:32:05;;;;;;;9.25;6.38;;;22.60;99.90;;;;;;2603689;54;20027;31
2023/06/09 13:34:40;;;;;;;8.95;6.50;;;22.80;99.90;;;;;;2603642;54;20883;31
2023/06/09 13:37:15;;;;;;;;;;;22.90;99.90;;;;;;2603747;54;20030;31
2023/06/09 13:39:52;;;;;;;9.82;7.65;;;23.00;99.90;;;;;;2603735;54;20810;31
2023/06/09 13:42:28;;;;;;;10.93;7.55;;;23.10;99.90;;;;;;2622039;46;20864;31
2023/06/09 13:45:04;;;;;;;10.35;7.05;;;23.20;99.90;;;;;;2603147;54;20026;31
2023/06/09 13:47:44;;;;;;;9.40;7.07;;;23.30;99.90;;;;;;2603401;54;20069;31